Time;durP1;ratioP1;P1;durP2;ratioP2;P2;SDS_P1;SDS_P2;PMS_P1;PMS_P2;Temp;Humidity;BMP_temperature;BMP_pressure;BME280_temperature;BME280_humidity;BME280_pressure;Samples;Min_cycle;Max_cycle;Signal;HPM_P1;HPM_P2
2022/03/08 00:00:00;;;;;;;14.68;8.60;;;2.70;97.20;;;;;;6209854;23;20472;-73
2022/03/08 00:02:26;;;;;;;14.70;9.38;;;2.70;97.20;;;;;;6184369;23;20012;-73
2022/03/08 00:04:51;;;;;;;12.93;9.55;;;2.70;97.40;;;;;;6182001;23;20028;-73
2022/03/08 00:07:17;;;;;;;14.82;9.23;;;2.70;97.50;;;;;;6210866;23;20087;-73
2022/03/08 00:09:43;;;;;;;13.43;9.07;;;2.70;97.70;;;;;;6209430;23;20099;-72
2022/03/08 00:12:10;;;;;;;13.70;9.50;;;2.70;97.50;;;;;;6182126;23;20012;-72
2022/03/08 00:14:35;;;;;;;14.63;9.63;;;2.70;97.50;;;;;;6183771;23;20385;-74
2022/03/08 00:17:02;;;;;;;16.00;10.25;;;2.70;97.70;;;;;;6209215;23;20008;-74
2022/03/08 00:19:28;;;;;;;15.27;11.02;;;2.70;97.80;;;;;;6182878;23;20027;-74
2022/03/08 00:21:53;;;;;;;13.73;9.43;;;2.70;98.20;;;;;;6209166;23;20017;-74
2022/03/08 00:24:19;;;;;;;14.70;10.05;;;2.70;98.40;;;;;;6183002;23;20709;-74
2022/03/08 00:26:45;;;;;;;13.80;9.68;;;2.70;98.40;;;;;;6181798;23;20023;-74
2022/03/08 00:29:11;;;;;;;14.68;9.77;;;2.70;98.40;;;;;;6210200;23;20017;-74
2022/03/08 00:31:36;;;;;;;13.10;9.02;;;2.70;98.50;;;;;;6183007;23;20012;-74
2022/03/08 00:34:03;;;;;;;14.27;9.55;;;2.70;98.60;;;;;;6181864;23;20809;-74
2022/03/08 00:36:30;;;;;;;13.38;9.70;;;2.70;98.60;;;;;;6182912;23;20070;-74
2022/03/08 00:38:56;;;;;;;14.32;9.60;;;2.70;98.90;;;;;;6208576;23;20601;-74
2022/03/08 00:41:22;;;;;;;14.65;10.50;;;2.70;98.90;;;;;;6181918;23;20079;-74
2022/03/08 00:43:48;;;;;;;15.57;10.63;;;2.70;99.10;;;;;;6208954;23;20492;-74
2022/03/08 00:46:15;;;;;;;15.90;10.23;;;2.70;99.00;;;;;;6209631;23;20023;-74
2022/03/08 00:48:41;;;;;;;15.07;11.07;;;2.70;99.00;;;;;;6181654;23;20079;-74
2022/03/08 00:51:07;;;;;;;14.88;10.52;;;2.70;99.00;;;;;;6209329;23;20258;-74
2022/03/08 00:53:33;;;;;;;13.45;10.07;;;2.70;99.40;;;;;;6182556;23;20020;-74
2022/03/08 00:55:58;;;;;;;14.32;9.98;;;2.70;99.10;;;;;;6209405;23;20103;-74
2022/03/08 00:58:24;;;;;;;14.40;9.98;;;2.70;99.30;;;;;;6182533;23;20092;-74
2022/03/08 01:00:49;;;;;;;16.52;10.38;;;2.70;99.50;;;;;;6208220;23;20028;-74
2022/03/08 01:03:15;;;;;;;15.50;10.18;;;2.70;99.80;;;;;;6183501;23;20023;-74
2022/03/08 01:05:42;;;;;;;14.65;9.88;;;2.70;99.90;;;;;;6181824;23;20550;-74
2022/03/08 01:08:08;;;;;;;17.90;10.13;;;2.70;99.90;;;;;;6211500;23;20032;-73
2022/03/08 01:10:34;;;;;;;15.35;9.93;;;2.70;99.90;;;;;;6182808;23;20112;-74
2022/03/08 01:13:00;;;;;;;14.07;10.20;;;2.60;99.90;;;;;;6182351;23;20040;-74
2022/03/08 01:15:26;;;;;;;15.05;11.02;;;2.60;99.90;;;;;;6207779;23;20017;-74
2022/03/08 01:17:54;;;;;;;14.73;10.35;;;2.60;99.90;;;;;;6180280;23;20074;-74
2022/03/08 01:20:20;;;;;;;16.20;10.82;;;2.60;99.90;;;;;;6208259;23;20555;-74
2022/03/08 01:22:46;;;;;;;15.75;11.10;;;2.60;99.90;;;;;;6181694;23;20100;-74
2022/03/08 01:25:13;;;;;;;16.80;10.43;;;2.50;99.90;;;;;;6209017;23;20024;-74
2022/03/08 01:27:39;;;;;;;;;;;2.50;99.90;;;;;;6211276;23;20023;-74
2022/03/08 01:30:08;;;;;;;15.18;10.77;;;2.50;99.90;;;;;;6207542;23;19947;-74
2022/03/08 01:32:34;;;;;;;15.15;10.73;;;2.40;99.90;;;;;;6182642;23;20384;-74
2022/03/08 01:34:59;;;;;;;15.02;10.35;;;2.50;99.90;;;;;;6208535;23;20009;-74
2022/03/08 01:37:25;;;;;;;16.10;10.52;;;2.50;99.90;;;;;;6209200;23;20013;-74
2022/03/08 01:39:51;;;;;;;16.58;11.43;;;2.40;99.90;;;;;;6208787;23;20009;-74
2022/03/08 01:42:20;;;;;;;16.88;12.10;;;2.40;99.90;;;;;;6207617;23;20020;-74
2022/03/08 01:44:46;;;;;;;15.95;11.75;;;2.40;99.90;;;;;;6207794;23;20028;-74
2022/03/08 01:47:18;;;;;;;15.30;11.57;;;2.40;99.90;;;;;;6182846;23;20087;-74
2022/03/08 01:49:46;;;;;;;15.57;11.23;;;2.40;99.90;;;;;;6207876;23;20023;-74
2022/03/08 01:52:12;;;;;;;15.85;11.88;;;2.40;99.90;;;;;;6209416;23;20012;-74
2022/03/08 01:54:38;;;;;;;16.63;11.65;;;2.30;99.90;;;;;;6207604;23;20059;-74
2022/03/08 01:57:04;;;;;;;18.02;12.07;;;2.30;99.90;;;;;;6207876;23;20372;-74
2022/03/08 01:59:30;;;;;;;19.30;12.98;;;2.30;99.90;;;;;;6209523;23;20067;-74
2022/03/08 02:01:56;;;;;;;16.77;12.23;;;2.30;99.90;;;;;;6209430;23;20012;-74
2022/03/08 02:04:22;;;;;;;19.80;14.07;;;2.30;99.90;;;;;;6209286;23;20425;-74
2022/03/08 02:06:48;;;;;;;20.52;13.45;;;2.30;99.90;;;;;;6209506;23;20016;-74
2022/03/08 02:09:14;;;;;;;16.92;12.50;;;2.30;99.90;;;;;;6183623;23;20040;-73
2022/03/08 02:11:41;;;;;;;19.77;13.63;;;2.30;99.90;;;;;;6182482;23;20433;-74
2022/03/08 02:14:07;;;;;;;19.85;13.13;;;2.30;99.90;;;;;;6209152;23;20025;-74
2022/03/08 02:16:33;;;;;;;18.13;13.02;;;2.30;99.90;;;;;;6211044;23;20448;-74
2022/03/08 02:18:59;;;;;;;17.70;12.77;;;2.20;99.90;;;;;;6180425;23;20392;-74
2022/03/08 02:21:25;;;;;;;17.98;12.63;;;2.20;99.90;;;;;;6184307;23;20344;-74
2022/03/08 02:23:51;;;;;;;18.25;12.85;;;2.20;99.90;;;;;;6209165;23;20139;-74
2022/03/08 02:26:17;;;;;;;19.67;13.57;;;2.20;99.90;;;;;;6208831;23;20055;-74
2022/03/08 02:28:43;;;;;;;18.73;13.00;;;2.20;99.90;;;;;;6210392;23;20023;-74
2022/03/08 02:31:09;;;;;;;18.23;13.18;;;2.20;99.90;;;;;;6209314;23;20017;-74
2022/03/08 02:33:34;;;;;;;17.58;12.60;;;2.20;99.90;;;;;;6210130;23;20332;-74
2022/03/08 02:36:00;;;;;;;19.45;13.45;;;2.10;99.90;;;;;;6182622;23;20027;-74
2022/03/08 02:38:26;;;;;;;20.70;14.02;;;2.20;99.90;;;;;;6184619;23;20111;-74
2022/03/08 02:40:51;;;;;;;18.92;13.55;;;2.10;99.90;;;;;;6181313;23;20412;-74
2022/03/08 02:43:18;;;;;;;18.02;13.57;;;2.10;99.90;;;;;;6183425;23;20017;-73
2022/03/08 02:45:44;;;;;;;18.35;13.57;;;2.10;99.90;;;;;;6210092;23;20031;-73
2022/03/08 02:48:09;;;;;;;18.88;13.77;;;2.10;99.90;;;;;;6182948;23;20013;-73
2022/03/08 02:50:36;;;;;;;18.58;14.38;;;2.10;99.90;;;;;;6208598;23;20122;-73
2022/03/08 02:53:03;;;;;;;20.13;13.90;;;2.00;99.90;;;;;;6208418;23;20454;-74
2022/03/08 02:55:32;;;;;;;19.80;13.23;;;2.00;99.90;;;;;;6209180;23;20021;-74
2022/03/08 02:57:58;;;;;;;20.27;14.52;;;2.00;99.90;;;;;;6185178;23;20048;-72
2022/03/08 03:00:25;;;;;;;21.95;14.77;;;2.00;99.90;;;;;;6208448;23;20020;-73
2022/03/08 03:02:51;;;;;;;;;;;2.00;99.90;;;;;;6210084;23;20086;-73
2022/03/08 03:05:17;;;;;;;22.38;14.07;;;1.90;99.90;;;;;;6209724;23;20533;-74
2022/03/08 03:07:43;;;;;;;20.25;15.02;;;1.90;99.90;;;;;;6208800;23;20479;-73
2022/03/08 03:10:11;;;;;;;19.50;14.40;;;1.90;99.90;;;;;;6209381;23;20017;-74
2022/03/08 03:12:38;;;;;;;19.50;14.73;;;1.90;99.90;;;;;;6182960;23;20083;-74
2022/03/08 03:15:06;;;;;;;22.40;15.20;;;1.90;99.90;;;;;;6182302;23;20097;-74
2022/03/08 03:17:31;;;;;;;21.63;15.45;;;1.90;99.90;;;;;;6183535;23;20044;-73
2022/03/08 03:19:57;;;;;;;20.98;14.57;;;1.90;99.90;;;;;;6182221;23;20020;-73
2022/03/08 03:22:23;;;;;;;21.10;15.18;;;1.90;99.90;;;;;;6208669;23;20039;-73
2022/03/08 03:24:48;;;;;;;23.80;16.00;;;2.00;99.90;;;;;;6209216;23;20016;-73
2022/03/08 03:27:14;;;;;;;21.80;15.75;;;1.90;99.90;;;;;;6210480;23;20017;-73
2022/03/08 03:29:39;;;;;;;20.70;15.48;;;2.00;99.90;;;;;;6208579;23;20089;-73
2022/03/08 03:32:06;;;;;;;22.67;15.13;;;2.00;99.90;;;;;;6185042;23;20020;-73
2022/03/08 03:34:31;;;;;;;21.88;15.65;;;1.90;99.90;;;;;;6185949;23;20024;-73
2022/03/08 03:36:57;;;;;;;21.80;15.68;;;1.90;99.90;;;;;;6183332;23;20016;-73
2022/03/08 03:39:22;;;;;;;20.27;14.90;;;1.90;99.90;;;;;;6212088;23;20406;-73
2022/03/08 03:41:48;;;;;;;22.13;16.38;;;1.90;99.90;;;;;;6210861;23;20020;-73
2022/03/08 03:44:13;;;;;;;21.05;15.02;;;1.90;99.90;;;;;;6184201;23;20016;-72
2022/03/08 03:46:39;;;;;;;21.27;16.23;;;1.90;99.90;;;;;;6212557;23;20013;-73
2022/03/08 03:49:05;;;;;;;23.00;16.17;;;1.90;99.90;;;;;;6184675;23;20445;-73
2022/03/08 03:51:31;;;;;;;21.80;16.25;;;1.90;99.90;;;;;;6184273;23;20046;-73
2022/03/08 03:53:59;;;;;;;24.27;16.30;;;1.90;99.90;;;;;;6184728;23;20016;-73
2022/03/08 03:56:25;;;;;;;21.20;15.88;;;1.90;99.90;;;;;;6184485;23;20027;-74
2022/03/08 03:58:50;;;;;;;22.70;16.35;;;1.90;99.90;;;;;;6184209;23;20024;-74
2022/03/08 04:01:16;;;;;;;23.80;15.80;;;1.80;99.90;;;;;;6212829;23;20397;-74
2022/03/08 04:03:42;;;;;;;22.13;16.85;;;1.80;99.90;;;;;;6211898;23;20005;-74
2022/03/08 04:06:08;;;;;;;22.10;17.10;;;1.80;99.90;;;;;;6185011;23;20031;-75
2022/03/08 04:08:34;;;;;;;24.08;16.85;;;1.80;99.90;;;;;;6211991;23;20016;-74
2022/03/08 04:11:00;;;;;;;22.63;17.20;;;1.80;99.90;;;;;;6184068;23;20021;-75
2022/03/08 04:13:26;;;;;;;23.60;16.58;;;1.80;99.90;;;;;;6185700;23;20044;-74
2022/03/08 04:15:52;;;;;;;21.05;16.33;;;1.80;99.90;;;;;;6184288;23;20024;-74
2022/03/08 04:18:18;;;;;;;21.25;15.68;;;1.80;99.90;;;;;;6185183;23;20024;-74
2022/03/08 04:20:45;;;;;;;21.35;16.13;;;1.80;99.90;;;;;;6184618;23;20021;-74
2022/03/08 04:23:10;;;;;;;23.73;16.80;;;1.80;99.90;;;;;;6184551;23;20070;-74
2022/03/08 04:25:36;;;;;;;21.67;16.58;;;1.80;99.90;;;;;;6184463;23;20020;-74
2022/03/08 04:28:03;;;;;;;21.70;16.38;;;1.80;99.90;;;;;;6211115;23;20530;-74
2022/03/08 04:30:29;;;;;;;22.05;16.40;;;1.80;99.90;;;;;;6212025;23;20378;-74
2022/03/08 04:32:55;;;;;;;21.83;15.43;;;1.80;99.90;;;;;;6210454;23;20020;-73
2022/03/08 04:35:20;;;;;;;21.30;15.95;;;1.80;99.90;;;;;;6184907;23;20024;-74
2022/03/08 04:37:46;;;;;;;23.13;17.08;;;1.80;99.90;;;;;;6184330;23;20022;-74
2022/03/08 04:40:12;;;;;;;22.17;16.05;;;1.70;99.90;;;;;;6210890;23;20016;-74
2022/03/08 04:42:39;;;;;;;21.35;16.13;;;1.70;99.90;;;;;;6184919;23;20669;-74
2022/03/08 04:45:06;;;;;;;22.67;16.25;;;1.70;99.90;;;;;;6184672;23;20398;-73
2022/03/08 04:47:35;;;;;;;22.15;15.45;;;1.60;99.90;;;;;;6212369;23;20013;-73
2022/03/08 04:50:02;;;;;;;23.67;16.80;;;1.70;99.90;;;;;;6184749;23;20108;-73
2022/03/08 04:52:28;;;;;;;22.65;15.77;;;1.60;99.90;;;;;;6211173;23;20028;-73
2022/03/08 04:54:54;;;;;;;22.42;17.00;;;1.60;99.90;;;;;;6183168;23;20016;-74
2022/03/08 04:57:19;;;;;;;21.40;15.88;;;1.60;99.90;;;;;;6183933;23;20020;-74
2022/03/08 04:59:45;;;;;;;23.67;16.48;;;1.60;99.90;;;;;;6182943;23;20012;-74
2022/03/08 05:02:11;;;;;;;22.13;16.48;;;1.60;99.90;;;;;;6183818;23;20322;-74
2022/03/08 05:04:36;;;;;;;21.85;15.35;;;1.60;99.90;;;;;;6212185;23;20056;-74
2022/03/08 05:07:02;;;;;;;22.23;15.82;;;1.60;99.90;;;;;;6183749;23;20847;-74
2022/03/08 05:09:27;;;;;;;22.55;16.88;;;1.60;99.90;;;;;;6184596;23;20047;-73
2022/03/08 05:11:53;;;;;;;22.10;15.70;;;1.60;99.90;;;;;;6211170;23;20020;-74
2022/03/08 05:14:19;;;;;;;22.45;16.15;;;1.60;99.90;;;;;;6183558;23;20013;-74
2022/03/08 05:16:44;;;;;;;22.85;16.23;;;1.60;99.90;;;;;;6211043;23;20059;-74
2022/03/08 05:19:10;;;;;;;21.98;16.55;;;1.60;99.90;;;;;;6184374;23;20340;-74
2022/03/08 05:21:36;;;;;;;24.70;16.50;;;1.60;99.90;;;;;;6209195;23;20389;-74
2022/03/08 05:24:01;;;;;;;23.13;16.95;;;1.60;99.90;;;;;;6211248;23;20042;-74
2022/03/08 05:26:27;;;;;;;23.00;17.17;;;1.60;99.90;;;;;;6210781;23;20075;-74
2022/03/08 05:28:53;;;;;;;22.42;16.67;;;1.50;99.90;;;;;;6183198;23;20035;-74
2022/03/08 05:31:18;;;;;;;23.75;17.70;;;1.50;99.90;;;;;;6211449;23;20013;-74
2022/03/08 05:33:44;;;;;;;26.83;17.45;;;1.50;99.90;;;;;;6184714;23;20024;-74
2022/03/08 05:36:10;;;;;;;23.30;16.83;;;1.40;99.90;;;;;;6183806;23;20031;-74
2022/03/08 05:38:35;;;;;;;23.90;17.10;;;1.40;99.90;;;;;;6211763;23;20016;-74
2022/03/08 05:41:01;;;;;;;23.85;17.15;;;1.40;99.90;;;;;;6210170;23;20024;-74
2022/03/08 05:43:27;;;;;;;23.67;17.65;;;1.40;99.90;;;;;;6182682;23;20159;-74
2022/03/08 05:45:53;;;;;;;24.65;17.98;;;1.40;99.90;;;;;;6209977;23;20036;-74
2022/03/08 05:48:19;;;;;;;24.85;16.95;;;1.30;99.90;;;;;;6183591;23;20333;-74
2022/03/08 05:50:44;;;;;;;22.25;17.38;;;1.30;99.90;;;;;;6183368;23;20051;-74
2022/03/08 05:53:10;;;;;;;24.27;17.90;;;1.30;99.90;;;;;;6210422;23;20064;-74
2022/03/08 05:55:36;;;;;;;24.67;17.65;;;1.40;99.90;;;;;;6184646;23;20071;-75
2022/03/08 05:58:01;;;;;;;25.05;17.90;;;1.40;99.90;;;;;;6183045;23;20016;-74
2022/03/08 06:00:28;;;;;;;23.25;17.35;;;1.30;99.90;;;;;;6211584;23;20048;-74
2022/03/08 06:02:54;;;;;;;23.63;17.77;;;1.40;99.90;;;;;;6182863;23;20016;-74
2022/03/08 06:05:20;;;;;;;21.98;16.67;;;1.40;99.90;;;;;;6211485;23;20019;-74
2022/03/08 06:07:45;;;;;;;21.80;16.42;;;1.40;99.90;;;;;;6183720;23;20333;-73
2022/03/08 06:10:11;;;;;;;24.58;18.00;;;1.40;99.90;;;;;;6183150;23;20016;-74
2022/03/08 06:12:37;;;;;;;22.08;17.60;;;1.40;99.90;;;;;;6210863;23;20063;-74
2022/03/08 06:15:04;;;;;;;27.90;17.70;;;1.50;99.90;;;;;;6183900;23;20356;-74
2022/03/08 06:17:30;;;;;;;28.77;18.02;;;1.50;99.90;;;;;;6209705;23;20016;-74
2022/03/08 06:19:55;;;;;;;22.85;16.05;;;1.50;99.90;;;;;;6183530;23;20023;-74
2022/03/08 06:22:21;;;;;;;24.20;17.35;;;1.50;99.90;;;;;;6210598;23;20317;-74
2022/03/08 06:24:46;;;;;;;22.52;17.95;;;1.50;99.90;;;;;;6182936;23;20078;-74
2022/03/08 06:27:13;;;;;;;22.63;17.17;;;1.50;99.90;;;;;;6183973;23;20056;-74
2022/03/08 06:29:39;;;;;;;25.40;17.45;;;1.50;99.90;;;;;;6184530;23;20092;-74
2022/03/08 06:32:05;;;;;;;26.38;17.65;;;1.50;99.90;;;;;;6182321;23;20012;-74
2022/03/08 06:34:31;;;;;;;24.23;17.25;;;1.50;99.90;;;;;;6185545;23;20016;-73
2022/03/08 06:36:57;;;;;;;23.00;16.92;;;1.50;99.90;;;;;;6210891;23;20076;-74
2022/03/08 06:39:22;;;;;;;31.38;17.85;;;1.50;99.90;;;;;;6183294;23;20021;-74
2022/03/08 06:41:48;;;;;;;22.33;16.00;;;1.60;99.90;;;;;;6208974;23;20012;-74
2022/03/08 06:44:14;;;;;;;26.38;16.70;;;1.60;99.90;;;;;;6183348;23;20100;-77
2022/03/08 06:46:44;;;;;;;29.67;16.75;;;1.60;99.90;;;;;;6183350;23;20044;-74
2022/03/08 06:49:11;;;;;;;23.25;17.65;;;1.70;99.90;;;;;;6206516;23;20019;-74
2022/03/08 06:51:37;;;;;;;22.42;16.85;;;1.80;99.90;;;;;;6182757;23;20027;-75
2022/03/08 06:54:05;;;;;;;23.15;16.65;;;1.80;99.90;;;;;;6181206;23;20024;-75
2022/03/08 06:56:30;;;;;;;24.58;16.63;;;1.80;99.90;;;;;;6182710;23;20452;-76
2022/03/08 06:58:56;;;;;;;21.08;15.80;;;1.80;99.90;;;;;;6208938;23;20016;-72
2022/03/08 07:01:22;;;;;;;24.17;17.48;;;1.90;99.90;;;;;;6208301;23;20028;-72
2022/03/08 07:03:48;;;;;;;21.08;16.15;;;1.90;99.90;;;;;;6182889;23;20020;-72
2022/03/08 07:06:13;;;;;;;23.67;16.42;;;2.00;99.90;;;;;;6208486;23;20047;-72
2022/03/08 07:08:39;;;;;;;21.10;16.67;;;2.00;99.90;;;;;;6183217;23;20090;-72
2022/03/08 07:11:05;;;;;;;20.65;16.10;;;2.10;99.90;;;;;;6182144;23;20020;-72
2022/03/08 07:13:32;;;;;;;21.90;16.35;;;2.20;99.90;;;;;;6182477;23;20123;-72
2022/03/08 07:15:57;;;;;;;21.20;15.83;;;2.20;99.90;;;;;;6208620;23;20074;-72
2022/03/08 07:18:23;;;;;;;22.05;16.50;;;2.30;99.90;;;;;;6183259;23;20260;-72
2022/03/08 07:20:50;;;;;;;23.38;16.23;;;2.30;99.90;;;;;;6178871;23;20099;-72
2022/03/08 07:23:16;;;;;;;22.03;16.60;;;2.40;99.90;;;;;;6208366;23;20504;-72
2022/03/08 07:25:42;;;;;;;19.30;16.42;;;2.40;99.90;;;;;;6181961;23;20347;-72
2022/03/08 07:28:08;;;;;;;22.38;16.25;;;2.50;99.90;;;;;;6209436;23;20016;-71
2022/03/08 07:30:35;;;;;;;22.15;16.55;;;2.60;99.90;;;;;;6209577;23;20020;-71
2022/03/08 07:33:00;;;;;;;23.80;16.85;;;2.60;99.90;;;;;;6208176;23;20013;-71
2022/03/08 07:35:26;;;;;;;20.63;16.55;;;2.70;99.90;;;;;;6208389;23;20100;-72
2022/03/08 07:37:52;;;;;;;19.33;16.85;;;2.80;99.90;;;;;;6182138;23;20467;-72
2022/03/08 07:40:17;;;;;;;19.65;15.32;;;2.80;99.90;;;;;;6209564;23;20433;-72
2022/03/08 07:42:43;;;;;;;20.90;15.40;;;2.90;99.90;;;;;;6181590;23;20467;-72
2022/03/08 07:45:09;;;;;;;18.85;16.45;;;2.90;99.90;;;;;;6182084;23;20016;-72
2022/03/08 07:47:35;;;;;;;20.42;15.43;;;3.00;99.90;;;;;;6181150;23;20020;-71
2022/03/08 07:50:00;;;;;;;20.20;16.10;;;3.00;99.90;;;;;;6206938;23;20021;-71
2022/03/08 07:52:26;;;;;;;19.77;15.98;;;3.10;99.90;;;;;;6209231;23;20009;-70
2022/03/08 07:54:52;;;;;;;20.85;16.52;;;3.20;99.90;;;;;;6207387;23;20344;-70
2022/03/08 07:57:18;;;;;;;19.02;17.00;;;3.20;99.90;;;;;;6182339;23;20071;-70
2022/03/08 07:59:44;;;;;;;19.25;14.45;;;3.30;99.90;;;;;;6209012;23;20028;-70
2022/03/08 08:02:09;;;;;;;18.30;15.82;;;3.30;99.90;;;;;;6209244;23;20435;-71
2022/03/08 08:04:35;;;;;;;27.85;16.13;;;3.40;99.90;;;;;;6208407;23;20039;-70
2022/03/08 08:07:01;;;;;;;19.77;17.15;;;3.50;99.90;;;;;;6182605;23;20064;-70
2022/03/08 08:09:26;;;;;;;20.70;17.05;;;3.50;99.90;;;;;;6182934;23;20044;-73
2022/03/08 08:11:52;;;;;;;21.13;16.95;;;3.60;99.90;;;;;;6208934;23;20027;-73
2022/03/08 08:14:18;;;;;;;20.95;16.88;;;3.60;99.90;;;;;;6181710;23;20019;-71
2022/03/08 08:16:45;;;;;;;16.95;15.13;;;3.70;99.90;;;;;;6206951;23;20017;-73
2022/03/08 08:19:11;;;;;;;20.08;16.45;;;3.80;99.90;;;;;;6186445;23;20017;-75
2022/03/08 08:21:37;;;;;;;19.98;16.05;;;3.80;99.90;;;;;;6186417;23;20079;-75
2022/03/08 08:24:04;;;;;;;17.98;15.23;;;3.90;99.90;;;;;;6215072;23;20055;-76
2022/03/08 08:26:30;;;;;;;17.67;15.77;;;4.00;99.90;;;;;;6215675;23;20074;-75
2022/03/08 08:28:56;;;;;;;18.00;16.10;;;4.00;99.90;;;;;;6186144;23;20066;-74
2022/03/08 08:31:23;;;;;;;18.38;16.23;;;4.10;99.70;;;;;;6184800;23;20016;-74
2022/03/08 08:33:50;;;;;;;19.15;16.05;;;4.10;99.20;;;;;;6186081;23;20075;-73
2022/03/08 08:36:16;;;;;;;19.13;16.05;;;4.20;99.30;;;;;;6187033;23;20027;-74
2022/03/08 08:38:42;;;;;;;17.77;15.90;;;4.20;99.60;;;;;;6186048;23;20020;-73
2022/03/08 08:41:08;;;;;;;18.95;16.20;;;4.30;99.40;;;;;;6186817;23;20519;-74
2022/03/08 08:43:33;;;;;;;17.33;15.48;;;4.40;98.50;;;;;;6187196;23;20024;-76
2022/03/08 08:45:59;;;;;;;16.95;15.02;;;4.40;98.30;;;;;;6184800;23;20360;-76
2022/03/08 08:48:25;;;;;;;18.80;16.08;;;4.60;97.10;;;;;;6213531;23;20096;-76
2022/03/08 08:50:51;;;;;;;18.30;15.50;;;4.60;97.60;;;;;;6213605;23;20092;-76
2022/03/08 08:53:17;;;;;;;16.85;14.82;;;4.60;97.20;;;;;;6212963;23;20461;-76
2022/03/08 08:55:43;;;;;;;19.60;15.82;;;4.70;96.40;;;;;;6213288;23;20028;-76
2022/03/08 08:58:08;;;;;;;16.23;14.55;;;4.80;97.00;;;;;;6185985;23;20020;-75
2022/03/08 09:00:35;;;;;;;19.00;14.82;;;4.90;94.50;;;;;;6212069;23;20203;-78
2022/03/08 09:03:01;;;;;;;17.20;15.02;;;5.00;93.30;;;;;;6212595;23;20009;-77
2022/03/08 09:05:28;;;;;;;18.63;14.20;;;5.00;92.90;;;;;;6185970;23;20017;-74
2022/03/08 09:07:53;;;;;;;16.10;14.40;;;5.10;92.30;;;;;;6184347;23;20039;-76
2022/03/08 09:10:22;;;;;;;18.02;13.98;;;5.10;91.40;;;;;;6185610;23;20441;-75
2022/03/08 09:12:51;;;;;;;16.70;14.35;;;5.20;91.10;;;;;;6212044;23;20012;-75
2022/03/08 09:15:19;;;;;;;17.08;14.73;;;5.30;90.40;;;;;;6212701;23;20017;-76
2022/03/08 09:17:46;;;;;;;16.23;14.10;;;5.40;89.80;;;;;;6185984;23;20019;-76
2022/03/08 09:20:13;;;;;;;16.73;14.63;;;5.40;88.20;;;;;;6212746;23;20115;-72
2022/03/08 09:22:39;;;;;;;16.15;14.45;;;5.50;89.00;;;;;;6187068;23;20013;-72
2022/03/08 09:25:06;;;;;;;15.80;14.15;;;5.60;88.90;;;;;;6185975;23;20490;-72
2022/03/08 09:27:34;;;;;;;16.88;13.90;;;5.60;88.60;;;;;;6211340;23;20027;-72
2022/03/08 09:30:04;;;;;;;17.17;13.60;;;5.70;87.20;;;;;;6212748;23;20012;-73
2022/03/08 09:32:29;;;;;;;15.57;13.15;;;5.80;85.20;;;;;;6213566;23;20341;-74
2022/03/08 09:34:55;;;;;;;17.50;13.45;;;5.90;82.80;;;;;;6184770;23;20016;-72
2022/03/08 09:37:21;;;;;;;16.25;13.70;;;5.90;83.10;;;;;;6213422;23;20026;-71
2022/03/08 09:39:46;;;;;;;18.52;13.50;;;6.00;86.70;;;;;;6212638;23;20307;-72
2022/03/08 09:42:12;;;;;;;18.20;13.13;;;6.10;84.90;;;;;;6185345;23;20015;-72
2022/03/08 09:44:38;;;;;;;16.88;13.13;;;6.20;81.60;;;;;;6212297;23;20100;-70
2022/03/08 09:47:05;;;;;;;15.50;13.05;;;6.30;81.20;;;;;;6212474;23;20433;-72
2022/03/08 09:49:32;;;;;;;17.88;13.35;;;6.30;82.20;;;;;;6185306;23;20040;-75
2022/03/08 09:51:58;;;;;;;14.00;12.55;;;6.40;82.10;;;;;;6184095;23;20020;-72
2022/03/08 09:54:24;;;;;;;14.02;11.77;;;6.50;79.50;;;;;;6185377;23;20326;-71
2022/03/08 09:56:49;;;;;;;15.00;12.43;;;6.50;79.10;;;;;;6210294;23;20020;-73
2022/03/08 09:59:17;;;;;;;11.43;10.23;;;6.60;78.00;;;;;;6184989;23;20075;-74
2022/03/08 10:01:44;;;;;;;13.98;11.15;;;6.70;75.10;;;;;;6186312;23;20020;-74
2022/03/08 10:04:10;;;;;;;11.85;10.45;;;6.70;74.00;;;;;;6185642;23;20536;-73
2022/03/08 10:06:41;;;;;;;14.35;10.45;;;6.80;73.30;;;;;;6186020;23;20020;-73
2022/03/08 10:09:17;;;;;;;13.82;9.80;;;6.80;72.00;;;;;;6211896;23;20024;-73
2022/03/08 10:11:49;;;;;;;11.00;8.57;;;6.90;71.50;;;;;;6187761;23;20020;-73
2022/03/08 10:14:39;;;;;;;11.07;8.95;;;7.00;73.50;;;;;;6187478;23;20352;-73
2022/03/08 10:17:06;;;;;;;13.15;10.00;;;7.20;70.00;;;;;;6211386;23;20016;-74
2022/03/08 10:19:46;;;;;;;13.68;9.43;;;7.20;69.10;;;;;;6213650;23;20021;-75
2022/03/08 10:22:25;;;;;;;11.45;9.23;;;7.30;68.50;;;;;;6185695;23;20095;-74
2022/03/08 10:25:07;;;;;;;11.80;9.20;;;7.30;67.90;;;;;;6211609;23;20374;-72
2022/03/08 10:27:33;;;;;;;11.63;9.52;;;7.30;67.50;;;;;;6186029;23;20023;-74
2022/03/08 10:29:59;;;;;;;12.15;9.38;;;7.40;67.00;;;;;;6211709;23;20016;-72
2022/03/08 10:32:36;;;;;;;9.95;8.10;;;7.50;66.30;;;;;;6211191;23;20016;-72
2022/03/08 10:35:03;;;;;;;18.63;9.90;;;7.50;64.50;;;;;;6211779;23;20035;-75
2022/03/08 10:37:35;;;;;;;11.23;8.98;;;7.60;64.80;;;;;;6212354;23;20047;-72
2022/03/08 10:40:04;;;;;;;10.38;9.25;;;7.60;64.10;;;;;;6211829;23;20028;-74
2022/03/08 10:42:34;;;;;;;9.20;7.95;;;7.70;64.40;;;;;;6185922;23;20441;-73
2022/03/08 10:45:07;;;;;;;10.30;8.40;;;7.80;63.30;;;;;;6210874;23;20020;-73
2022/03/08 10:47:47;;;;;;;10.10;8.38;;;7.80;63.20;;;;;;6212823;23;20025;-72
2022/03/08 10:50:15;;;;;;;10.40;8.65;;;7.90;63.20;;;;;;6185008;23;20016;-72
2022/03/08 10:52:42;;;;;;;;;;;8.00;63.40;;;;;;6184668;23;20024;-72
2022/03/08 10:55:24;;;;;;;10.98;7.78;;;8.00;63.40;;;;;;6211709;23;19930;-72
2022/03/08 10:57:56;;;;;;;11.70;8.00;;;8.10;63.10;;;;;;6211163;23;20066;-70
2022/03/08 11:00:38;;;;;;;10.20;8.75;;;8.20;62.20;;;;;;6210563;23;20012;-70
2022/03/08 11:03:12;;;;;;;11.15;8.30;;;8.20;61.90;;;;;;6210408;23;20025;-72
2022/03/08 11:05:46;;;;;;;8.82;7.93;;;8.20;61.70;;;;;;6209845;23;20027;-72
2022/03/08 11:08:13;;;;;;;11.55;8.13;;;8.30;61.70;;;;;;6185604;23;20012;-72
2022/03/08 11:10:40;;;;;;;9.10;7.18;;;8.30;61.70;;;;;;6212873;23;20044;-72
2022/03/08 11:13:08;;;;;;;9.77;7.83;;;8.40;61.60;;;;;;6210211;23;20344;-71
2022/03/08 11:15:36;;;;;;;12.10;8.90;;;8.50;61.30;;;;;;6185703;23;20310;-71
2022/03/08 11:18:05;;;;;;;12.55;8.77;;;8.60;61.70;;;;;;6183933;23;20028;-73
2022/03/08 11:20:31;;;;;;;11.73;9.07;;;8.60;61.50;;;;;;6184242;23;20021;-72
2022/03/08 11:22:59;;;;;;;9.55;7.68;;;8.60;61.40;;;;;;6210104;23;20020;-73
2022/03/08 11:25:26;;;;;;;;;;;8.70;61.10;;;;;;6213179;23;20021;-73
2022/03/08 11:27:52;;;;;;;;;;;8.70;61.80;;;;;;6184041;23;19920;-76
2022/03/08 11:30:22;;;;;;;9.45;8.15;;;8.70;62.00;;;;;;6184759;23;20005;-74
2022/03/08 11:33:10;;;;;;;9.88;8.13;;;8.80;62.20;;;;;;6183394;23;20021;-75
2022/03/08 11:35:41;;;;;;;9.35;7.45;;;8.80;60.40;;;;;;6183956;23;20025;-74
2022/03/08 11:38:13;;;;;;;10.48;7.60;;;8.90;60.90;;;;;;6211823;23;20016;-72
2022/03/08 11:40:38;;;;;;;8.10;7.20;;;9.00;60.20;;;;;;6210694;23;20059;-76
2022/03/08 11:43:07;;;;;;;9.30;6.93;;;9.00;61.40;;;;;;6184907;23;20020;-76
2022/03/08 11:45:33;;;;;;;9.25;7.38;;;9.10;62.30;;;;;;6185127;23;20025;-76
2022/03/08 11:48:05;;;;;;;9.25;7.03;;;9.20;62.30;;;;;;6184178;23;20012;-76
2022/03/08 11:50:38;;;;;;;11.32;7.80;;;9.30;62.60;;;;;;6185605;23;20322;-75
2022/03/08 11:53:08;;;;;;;9.35;7.90;;;9.30;62.30;;;;;;6186281;23;20024;-78
2022/03/08 11:55:35;;;;;;;12.00;7.47;;;9.40;62.00;;;;;;6185965;23;20024;-79
2022/03/08 11:58:08;;;;;;;9.93;7.20;;;9.50;61.40;;;;;;6213554;23;20043;-77
2022/03/08 12:00:40;;;;;;;9.55;7.68;;;9.50;60.60;;;;;;6216380;23;20071;-77
2022/03/08 12:03:37;;;;;;;10.40;7.82;;;9.50;59.80;;;;;;6185131;23;20020;-78
2022/03/08 12:06:08;;;;;;;12.98;8.38;;;9.50;59.10;;;;;;6186543;23;20031;-77
2022/03/08 12:08:33;;;;;;;10.07;8.18;;;9.40;59.10;;;;;;6214154;23;20017;-78
2022/03/08 12:11:33;;;;;;;10.32;8.27;;;9.40;59.40;;;;;;6185616;23;20395;-78
2022/03/08 12:14:04;;;;;;;10.40;8.32;;;9.40;58.90;;;;;;6212070;23;20019;-78
2022/03/08 12:16:31;;;;;;;10.15;8.27;;;9.50;59.30;;;;;;6212299;23;20088;-81
2022/03/08 12:18:58;;;;;;;10.32;8.45;;;9.50;59.10;;;;;;6185265;23;20055;-76
2022/03/08 12:21:24;;;;;;;9.30;7.55;;;9.50;58.50;;;;;;6185797;23;20087;-73
2022/03/08 12:23:57;;;;;;;10.43;8.05;;;9.50;58.70;;;;;;6185290;23;20106;-74
2022/03/08 12:26:31;;;;;;;10.05;8.20;;;9.60;58.20;;;;;;6187018;23;20024;-74
2022/03/08 12:29:11;;;;;;;9.65;7.60;;;9.60;57.80;;;;;;6186269;23;20066;-77
2022/03/08 12:31:55;;;;;;;12.32;7.78;;;9.60;58.00;;;;;;6213307;23;20396;-72
2022/03/08 12:34:33;;;;;;;9.57;7.65;;;9.60;57.50;;;;;;6213243;23;20024;-72
2022/03/08 12:37:02;;;;;;;9.73;7.00;;;9.70;57.90;;;;;;6185220;23;20088;-76
2022/03/08 12:39:49;;;;;;;10.43;7.82;;;9.70;58.30;;;;;;6186489;23;20017;-74